createdAt,value
2022-11-07T00:23:36.515Z,9.8
2022-11-07T00:51:57.418Z,10.13
2022-11-07T01:20:23.308Z,10.08
2022-11-07T01:48:49.765Z,9.85
2022-11-07T02:17:13.806Z,9.78
2022-11-07T02:45:38.153Z,9.69
2022-11-07T03:14:01.300Z,9.55
2022-11-07T03:42:25.392Z,9.42
2022-11-07T04:10:48.956Z,9.38
2022-11-07T04:39:12.515Z,9.55
2022-11-07T05:07:38.436Z,9.54
2022-11-07T05:36:02.960Z,9.59
2022-11-07T06:04:27.156Z,9.76
2022-11-07T06:32:54.269Z,9.82
2022-11-07T07:01:21.320Z,10.26
2022-11-07T07:29:46.434Z,11.01
2022-11-07T07:58:13.780Z,11.58
2022-11-07T08:26:45.861Z,12.21
2022-11-07T08:55:10.805Z,12.36
2022-11-07T09:23:27.977Z,12.41
2022-11-07T09:51:53.261Z,12.94
2022-11-07T10:20:25.425Z,13.01
2022-11-07T10:48:38.195Z,13.79
2022-11-07T11:17:05.885Z,14.73
2022-11-07T11:45:28.436Z,14.83
2022-11-07T12:13:50.555Z,14.71
2022-11-07T12:42:14.849Z,15.01
2022-11-07T13:10:36.977Z,15.03
2022-11-07T13:38:59.669Z,14.52
2022-11-07T14:07:26.989Z,14.21
2022-11-07T14:35:36.109Z,14.08
2022-11-07T15:03:51.367Z,13.99
2022-11-07T15:32:12.522Z,13.88
2022-11-07T16:00:33.110Z,13.64
2022-11-07T16:28:48.896Z,13.19
2022-11-07T16:57:06.748Z,12.51
2022-11-07T17:25:23.697Z,12.27
2022-11-07T17:53:46.147Z,12.05
2022-11-07T18:22:05.142Z,11.49
2022-11-07T18:50:29.748Z,11.04
2022-11-07T19:18:37.630Z,10.65
2022-11-07T19:46:55.815Z,10.18
2022-11-07T20:15:14.227Z,9.44
2022-11-07T20:43:39.932Z,9.25
2022-11-07T21:11:53.101Z,8.9
2022-11-07T21:40:13.831Z,8.77
2022-11-07T22:08:35.788Z,8.58
2022-11-07T22:36:56.810Z,8.4
2022-11-07T23:05:18.282Z,8.5
2022-11-07T23:33:34.410Z,7.94
